sensor_id;sensor_type;location;lat;lon;timestamp;pressure;altitude;pressure_sealevel;temperature;humidity
52735;BME280;38631;47.572;10.704;2023-12-20T00:01:38;92550.53;;;2.67;89.80
52735;BME280;38631;47.572;10.704;2023-12-20T00:04:03;92541.13;;;2.71;90.83
52735;BME280;38631;47.572;10.704;2023-12-20T00:06:29;92548.44;;;2.69;89.97
52735;BME280;38631;47.572;10.704;2023-12-20T00:08:55;92547.03;;;2.46;90.47
52735;BME280;38631;47.572;10.704;2023-12-20T00:11:20;92539.97;;;2.52;92.41
52735;BME280;38631;47.572;10.704;2023-12-20T00:13:46;92522.50;;;2.20;93.21
52735;BME280;38631;47.572;10.704;2023-12-20T00:16:11;92517.88;;;2.32;92.35
52735;BME280;38631;47.572;10.704;2023-12-20T00:18:36;92519.94;;;2.30;91.13
52735;BME280;38631;47.572;10.704;2023-12-20T00:21:02;92497.41;;;2.24;91.66
52735;BME280;38631;47.572;10.704;2023-12-20T00:23:27;92502.34;;;2.21;93.09
52735;BME280;38631;47.572;10.704;2023-12-20T00:25:53;92493.00;;;2.40;93.69
52735;BME280;38631;47.572;10.704;2023-12-20T00:28:18;92488.63;;;2.51;91.93
52735;BME280;38631;47.572;10.704;2023-12-20T00:30:43;92493.34;;;2.54;91.24
52735;BME280;38631;47.572;10.704;2023-12-20T00:33:09;92481.03;;;2.54;92.18
52735;BME280;38631;47.572;10.704;2023-12-20T00:35:34;92509.47;;;2.30;91.92
52735;BME280;38631;47.572;10.704;2023-12-20T00:38:00;92517.78;;;2.17;93.65
52735;BME280;38631;47.572;10.704;2023-12-20T00:40:25;92498.41;;;2.18;93.39
52735;BME280;38631;47.572;10.704;2023-12-20T00:42:50;92508.31;;;2.06;93.16
52735;BME280;38631;47.572;10.704;2023-12-20T00:45:16;92501.59;;;2.30;94.87
52735;BME280;38631;47.572;10.704;2023-12-20T00:47:41;92511.19;;;2.09;94.03
52735;BME280;38631;47.572;10.704;2023-12-20T00:50:07;92510.97;;;2.16;94.89
52735;BME280;38631;47.572;10.704;2023-12-20T00:52:33;92498.47;;;2.28;93.67
52735;BME280;38631;47.572;10.704;2023-12-20T00:54:58;92495.81;;;2.23;94.88
52735;BME280;38631;47.572;10.704;2023-12-20T00:57:23;92495.91;;;2.38;95.59
52735;BME280;38631;47.572;10.704;2023-12-20T00:59:49;92488.03;;;2.33;92.99
52735;BME280;38631;47.572;10.704;2023-12-20T01:02:14;92500.00;;;2.19;94.02
52735;BME280;38631;47.572;10.704;2023-12-20T01:04:39;92485.22;;;2.03;93.78
52735;BME280;38631;47.572;10.704;2023-12-20T01:07:05;92487.13;;;2.12;94.44
52735;BME280;38631;47.572;10.704;2023-12-20T01:09:30;92486.94;;;2.29;94.94
52735;BME280;38631;47.572;10.704;2023-12-20T01:11:55;92477.19;;;2.20;93.80
52735;BME280;38631;47.572;10.704;2023-12-20T01:14:21;92468.50;;;2.04;93.78
52735;BME280;38631;47.572;10.704;2023-12-20T01:16:47;92453.53;;;1.99;94.48
52735;BME280;38631;47.572;10.704;2023-12-20T01:19:12;92448.56;;;2.03;92.80
52735;BME280;38631;47.572;10.704;2023-12-20T01:21:39;92438.50;;;1.79;94.42
52735;BME280;38631;47.572;10.704;2023-12-20T01:24:04;92452.78;;;2.04;94.75
52735;BME280;38631;47.572;10.704;2023-12-20T01:26:30;92469.44;;;1.92;94.35
52735;BME280;38631;47.572;10.704;2023-12-20T01:28:55;92486.69;;;1.83;96.16
52735;BME280;38631;47.572;10.704;2023-12-20T01:31:21;92486.25;;;1.97;95.22
52735;BME280;38631;47.572;10.704;2023-12-20T01:33:46;92510.59;;;1.97;95.70
52735;BME280;38631;47.572;10.704;2023-12-20T01:36:11;92515.34;;;2.05;95.07
52735;BME280;38631;47.572;10.704;2023-12-20T01:38:37;92511.47;;;2.13;95.41
52735;BME280;38631;47.572;10.704;2023-12-20T01:41:02;92513.13;;;1.82;95.44
52735;BME280;38631;47.572;10.704;2023-12-20T01:43:29;92509.13;;;1.74;95.12
52735;BME280;38631;47.572;10.704;2023-12-20T01:45:55;92503.25;;;1.57;96.31
52735;BME280;38631;47.572;10.704;2023-12-20T01:48:21;92493.78;;;1.50;97.28
52735;BME280;38631;47.572;10.704;2023-12-20T01:50:46;92494.06;;;1.91;97.24
52735;BME280;38631;47.572;10.704;2023-12-20T01:53:12;92495.00;;;1.75;96.31
52735;BME280;38631;47.572;10.704;2023-12-20T01:55:40;92490.72;;;1.59;96.81
52735;BME280;38631;47.572;10.704;2023-12-20T01:58:09;92481.03;;;1.59;97.15
52735;BME280;38631;47.572;10.704;2023-12-20T02:00:36;92488.63;;;1.61;96.63
52735;BME280;38631;47.572;10.704;2023-12-20T02:03:02;92487.31;;;1.58;97.02
52735;BME280;38631;47.572;10.704;2023-12-20T02:05:29;92481.06;;;1.64;95.78
52735;BME280;38631;47.572;10.704;2023-12-20T02:07:55;92467.19;;;1.64;95.90
52735;BME280;38631;47.572;10.704;2023-12-20T02:10:20;92449.22;;;1.78;94.88
52735;BME280;38631;47.572;10.704;2023-12-20T02:12:46;92449.78;;;1.85;94.39
52735;BME280;38631;47.572;10.704;2023-12-20T02:15:11;92445.09;;;1.92;94.25
52735;BME280;38631;47.572;10.704;2023-12-20T02:17:38;92461.22;;;2.16;94.91
52735;BME280;38631;47.572;10.704;2023-12-20T02:20:05;92456.97;;;2.05;93.96
52735;BME280;38631;47.572;10.704;2023-12-20T02:22:31;92448.53;;;1.98;93.50
52735;BME280;38631;47.572;10.704;2023-12-20T02:24:56;92446.53;;;2.15;96.15
52735;BME280;38631;47.572;10.704;2023-12-20T02:27:22;92450.19;;;2.14;93.47
52735;BME280;38631;47.572;10.704;2023-12-20T02:29:48;92458.09;;;2.24;94.46
52735;BME280;38631;47.572;10.704;2023-12-20T02:32:15;92444.41;;;2.07;93.88
52735;BME280;38631;47.572;10.704;2023-12-20T02:34:40;92456.72;;;2.06;94.65
52735;BME280;38631;47.572;10.704;2023-12-20T02:37:06;92462.31;;;2.30;94.81
52735;BME280;38631;47.572;10.704;2023-12-20T02:39:31;92466.97;;;2.18;93.93
52735;BME280;38631;47.572;10.704;2023-12-20T02:41:57;92471.22;;;2.29;95.38
52735;BME280;38631;47.572;10.704;2023-12-20T02:44:22;92458.47;;;1.95;94.89
52735;BME280;38631;47.572;10.704;2023-12-20T02:46:47;92474.53;;;2.09;95.25
52735;BME280;38631;47.572;10.704;2023-12-20T02:49:13;92451.41;;;1.91;94.47
52735;BME280;38631;47.572;10.704;2023-12-20T02:51:38;92469.03;;;2.06;93.82
52735;BME280;38631;47.572;10.704;2023-12-20T02:54:04;92450.25;;;2.24;91.10
52735;BME280;38631;47.572;10.704;2023-12-20T02:56:29;92445.22;;;2.17;90.74
52735;BME280;38631;47.572;10.704;2023-12-20T02:58:55;92452.88;;;2.24;90.66
52735;BME280;38631;47.572;10.704;2023-12-20T03:01:20;92445.00;;;2.24;90.24
52735;BME280;38631;47.572;10.704;2023-12-20T03:03:45;92450.50;;;2.28;91.15
52735;BME280;38631;47.572;10.704;2023-12-20T03:06:11;92446.13;;;2.38;89.92
52735;BME280;38631;47.572;10.704;2023-12-20T03:08:36;92440.06;;;2.33;90.74
52735;BME280;38631;47.572;10.704;2023-12-20T03:11:02;92440.84;;;2.28;91.54
52735;BME280;38631;47.572;10.704;2023-12-20T03:13:27;92429.25;;;2.14;91.89
52735;BME280;38631;47.572;10.704;2023-12-20T03:15:52;92430.03;;;2.14;92.82
52735;BME280;38631;47.572;10.704;2023-12-20T03:18:18;92435.09;;;2.36;93.36
52735;BME280;38631;47.572;10.704;2023-12-20T03:20:43;92430.06;;;2.25;92.10
52735;BME280;38631;47.572;10.704;2023-12-20T03:23:09;92433.72;;;2.19;91.15
52735;BME280;38631;47.572;10.704;2023-12-20T03:25:34;92432.16;;;2.28;91.37
52735;BME280;38631;47.572;10.704;2023-12-20T03:27:59;92426.94;;;2.28;90.80
52735;BME280;38631;47.572;10.704;2023-12-20T03:30:25;92421.47;;;2.34;90.05
52735;BME280;38631;47.572;10.704;2023-12-20T03:32:50;92418.84;;;2.29;91.44
52735;BME280;38631;47.572;10.704;2023-12-20T03:35:16;92409.91;;;2.30;91.38
52735;BME280;38631;47.572;10.704;2023-12-20T03:37:41;92429.81;;;2.26;92.76
52735;BME280;38631;47.572;10.704;2023-12-20T03:40:07;92430.38;;;2.33;93.57
52735;BME280;38631;47.572;10.704;2023-12-20T03:42:32;92430.06;;;2.25;91.93
52735;BME280;38631;47.572;10.704;2023-12-20T03:44:57;92431.38;;;2.22;89.93
52735;BME280;38631;47.572;10.704;2023-12-20T03:47:23;92436.63;;;2.27;90.60
52735;BME280;38631;47.572;10.704;2023-12-20T03:49:48;92442.22;;;2.46;91.31
52735;BME280;38631;47.572;10.704;2023-12-20T03:52:13;92456.03;;;2.31;90.69
52735;BME280;38631;47.572;10.704;2023-12-20T03:54:40;92450.25;;;2.24;91.88
52735;BME280;38631;47.572;10.704;2023-12-20T03:57:06;92455.53;;;2.40;91.54
52735;BME280;38631;47.572;10.704;2023-12-20T03:59:37;92443.31;;;2.03;93.12
52735;BME280;38631;47.572;10.704;2023-12-20T04:02:02;92442.06;;;2.15;94.22
52735;BME280;38631;47.572;10.704;2023-12-20T04:04:28;92441.75;;;2.02;93.27
52735;BME280;38631;47.572;10.704;2023-12-20T04:06:53;92426.84;;;2.07;91.30
52735;BME280;38631;47.572;10.704;2023-12-20T04:09:18;92427.16;;;2.16;89.84
52735;BME280;38631;47.572;10.704;2023-12-20T04:11:44;92439.22;;;2.22;92.52
52735;BME280;38631;47.572;10.704;2023-12-20T04:14:09;92432.38;;;2.11;93.13
52735;BME280;38631;47.572;10.704;2023-12-20T04:16:35;92439.09;;;2.59;84.74
52735;BME280;38631;47.572;10.704;2023-12-20T04:19:00;92450.16;;;2.72;85.04
52735;BME280;38631;47.572;10.704;2023-12-20T04:21:26;92440.63;;;2.45;88.31
52735;BME280;38631;47.572;10.704;2023-12-20T04:23:51;92457.19;;;2.56;87.57
52735;BME280;38631;47.572;10.704;2023-12-20T04:26:17;92454.84;;;2.70;84.20
52735;BME280;38631;47.572;10.704;2023-12-20T04:28:42;92464.59;;;2.90;85.71
52735;BME280;38631;47.572;10.704;2023-12-20T04:31:08;92462.31;;;3.34;87.03
52735;BME280;38631;47.572;10.704;2023-12-20T04:33:33;92471.75;;;3.71;88.11
52735;BME280;38631;47.572;10.704;2023-12-20T04:35:58;92458.56;;;4.12;87.84
52735;BME280;38631;47.572;10.704;2023-12-20T04:38:25;92449.63;;;4.13;90.16
52735;BME280;38631;47.572;10.704;2023-12-20T04:40:50;92448.78;;;4.28;90.39
52735;BME280;38631;47.572;10.704;2023-12-20T04:43:15;92463.72;;;4.48;89.62
52735;BME280;38631;47.572;10.704;2023-12-20T04:45:41;92459.81;;;4.35;90.49
52735;BME280;38631;47.572;10.704;2023-12-20T04:48:06;92445.09;;;4.24;92.37
52735;BME280;38631;47.572;10.704;2023-12-20T04:50:32;92436.69;;;4.37;90.99
52735;BME280;38631;47.572;10.704;2023-12-20T04:52:58;92436.16;;;4.35;91.04
52735;BME280;38631;47.572;10.704;2023-12-20T04:55:23;92428.19;;;4.50;89.37
52735;BME280;38631;47.572;10.704;2023-12-20T04:57:49;92406.97;;;4.37;89.43
52735;BME280;38631;47.572;10.704;2023-12-20T05:00:14;92410.94;;;4.34;89.47
52735;BME280;38631;47.572;10.704;2023-12-20T05:02:40;92418.06;;;4.23;90.93
52735;BME280;38631;47.572;10.704;2023-12-20T05:05:06;92419.94;;;4.13;91.19
52735;BME280;38631;47.572;10.704;2023-12-20T05:07:31;92434.91;;;4.12;91.52
52735;BME280;38631;47.572;10.704;2023-12-20T05:09:57;92437.78;;;4.16;91.71
52735;BME280;38631;47.572;10.704;2023-12-20T05:12:22;92443.34;;;4.04;91.94
52735;BME280;38631;47.572;10.704;2023-12-20T05:14:47;92443.88;;;4.01;92.58
52735;BME280;38631;47.572;10.704;2023-12-20T05:17:13;92448.59;;;3.94;93.47
52735;BME280;38631;47.572;10.704;2023-12-20T05:19:38;92458.97;;;4.50;90.06
52735;BME280;38631;47.572;10.704;2023-12-20T05:22:03;92457.63;;;4.58;89.33
52735;BME280;38631;47.572;10.704;2023-12-20T05:24:29;92454.50;;;4.45;90.48
52735;BME280;38631;47.572;10.704;2023-12-20T05:26:54;92465.59;;;4.32;91.97
52735;BME280;38631;47.572;10.704;2023-12-20T05:29:20;92461.41;;;4.26;92.98
52735;BME280;38631;47.572;10.704;2023-12-20T05:31:45;92464.31;;;4.24;94.13
52735;BME280;38631;47.572;10.704;2023-12-20T05:34:11;92463.53;;;4.14;95.22
52735;BME280;38631;47.572;10.704;2023-12-20T05:36:36;92465.16;;;3.99;96.50
52735;BME280;38631;47.572;10.704;2023-12-20T05:39:02;92473.56;;;3.96;97.57
52735;BME280;38631;47.572;10.704;2023-12-20T05:41:33;92467.53;;;3.90;98.35
52735;BME280;38631;47.572;10.704;2023-12-20T05:43:58;92473.84;;;3.89;98.78
52735;BME280;38631;47.572;10.704;2023-12-20T05:46:24;92477.25;;;3.85;100.00
52735;BME280;38631;47.572;10.704;2023-12-20T05:48:50;92484.59;;;3.83;100.00
52735;BME280;38631;47.572;10.704;2023-12-20T05:51:16;92505.38;;;3.79;100.00
52735;BME280;38631;47.572;10.704;2023-12-20T05:53:42;92499.34;;;3.89;100.00
52735;BME280;38631;47.572;10.704;2023-12-20T05:56:07;92504.59;;;3.84;100.00
52735;BME280;38631;47.572;10.704;2023-12-20T05:58:33;92517.69;;;3.74;100.00
52735;BME280;38631;47.572;10.704;2023-12-20T06:00:59;92523.22;;;3.62;100.00
52735;BME280;38631;47.572;10.704;2023-12-20T06:03:24;92522.44;;;3.51;100.00
52735;BME280;38631;47.572;10.704;2023-12-20T06:05:49;92533.97;;;3.50;100.00
52735;BME280;38631;47.572;10.704;2023-12-20T06:08:15;92538.44;;;3.50;100.00
52735;BME280;38631;47.572;10.704;2023-12-20T06:10:40;92540.78;;;3.46;100.00
52735;BME280;38631;47.572;10.704;2023-12-20T06:13:05;92556.03;;;3.44;100.00
52735;BME280;38631;47.572;10.704;2023-12-20T06:15:32;92560.72;;;3.37;100.00
52735;BME280;38631;47.572;10.704;2023-12-20T06:17:57;92559.13;;;3.36;100.00
52735;BME280;38631;47.572;10.704;2023-12-20T06:20:23;92570.16;;;3.33;100.00
52735;BME280;38631;47.572;10.704;2023-12-20T06:22:48;92582.50;;;3.32;100.00
52735;BME280;38631;47.572;10.704;2023-12-20T06:25:13;92582.25;;;3.29;100.00
52735;BME280;38631;47.572;10.704;2023-12-20T06:27:39;92585.09;;;3.22;100.00
52735;BME280;38631;47.572;10.704;2023-12-20T06:30:06;92587.16;;;3.15;100.00
52735;BME280;38631;47.572;10.704;2023-12-20T06:32:32;92591.09;;;3.12;100.00
52735;BME280;38631;47.572;10.704;2023-12-20T06:34:57;92600.81;;;3.12;100.00
52735;BME280;38631;47.572;10.704;2023-12-20T06:37:23;92591.06;;;3.02;100.00
52735;BME280;38631;47.572;10.704;2023-12-20T06:39:48;92593.69;;;3.02;100.00
52735;BME280;38631;47.572;10.704;2023-12-20T06:42:13;92609.47;;;3.12;100.00
52735;BME280;38631;47.572;10.704;2023-12-20T06:44:39;92609.94;;;2.99;100.00
52735;BME280;38631;47.572;10.704;2023-12-20T06:47:06;92607.59;;;3.08;100.00
52735;BME280;38631;47.572;10.704;2023-12-20T06:49:32;92612.31;;;3.11;100.00
52735;BME280;38631;47.572;10.704;2023-12-20T06:51:57;92611.50;;;2.95;100.00
52735;BME280;38631;47.572;10.704;2023-12-20T06:54:23;92611.31;;;3.12;100.00
52735;BME280;38631;47.572;10.704;2023-12-20T06:56:48;92619.91;;;2.97;100.00
52735;BME280;38631;47.572;10.704;2023-12-20T06:59:13;92625.19;;;3.12;100.00
52735;BME280;38631;47.572;10.704;2023-12-20T07:01:39;92624.06;;;2.93;100.00
52735;BME280;38631;47.572;10.704;2023-12-20T07:04:04;92612.00;;;2.92;100.00
52735;BME280;38631;47.572;10.704;2023-12-20T07:06:30;92622.56;;;3.07;100.00
52735;BME280;38631;47.572;10.704;2023-12-20T07:08:55;92628.06;;;3.11;100.00
52735;BME280;38631;47.572;10.704;2023-12-20T07:11:21;92634.34;;;2.99;100.00
52735;BME280;38631;47.572;10.704;2023-12-20T07:13:46;92629.25;;;2.83;100.00
52735;BME280;38631;47.572;10.704;2023-12-20T07:16:11;92632.94;;;2.81;100.00
52735;BME280;38631;47.572;10.704;2023-12-20T07:18:38;92639.03;;;2.97;100.00
52735;BME280;38631;47.572;10.704;2023-12-20T07:21:04;92642.41;;;2.93;100.00
52735;BME280;38631;47.572;10.704;2023-12-20T07:23:29;92638.28;;;3.02;100.00
52735;BME280;38631;47.572;10.704;2023-12-20T07:25:54;92641.69;;;3.02;100.00
52735;BME280;38631;47.572;10.704;2023-12-20T07:28:20;92637.22;;;3.03;100.00
52735;BME280;38631;47.572;10.704;2023-12-20T07:30:45;92628.75;;;2.91;100.00
52735;BME280;38631;47.572;10.704;2023-12-20T07:33:11;92638.28;;;3.07;100.00
52735;BME280;38631;47.572;10.704;2023-12-20T07:35:37;92635.59;;;2.92;100.00
52735;BME280;38631;47.572;10.704;2023-12-20T07:38:03;92628.13;;;2.68;100.00
52735;BME280;38631;47.572;10.704;2023-12-20T07:40:28;92619.50;;;2.73;100.00
52735;BME280;38631;47.572;10.704;2023-12-20T07:42:54;92631.88;;;2.83;100.00
52735;BME280;38631;47.572;10.704;2023-12-20T07:45:19;92637.94;;;2.88;100.00
52735;BME280;38631;47.572;10.704;2023-12-20T07:47:44;92656.09;;;3.00;100.00
52735;BME280;38631;47.572;10.704;2023-12-20T07:50:11;92643.72;;;2.90;100.00
52735;BME280;38631;47.572;10.704;2023-12-20T07:52:36;92648.25;;;3.05;100.00
52735;BME280;38631;47.572;10.704;2023-12-20T07:55:02;92650.91;;;3.10;100.00
52735;BME280;38631;47.572;10.704;2023-12-20T07:57:30;92660.88;;;3.13;100.00
52735;BME280;38631;47.572;10.704;2023-12-20T07:59:56;92660.31;;;3.01;100.00
52735;BME280;38631;47.572;10.704;2023-12-20T08:02:21;92667.63;;;2.94;100.00
52735;BME280;38631;47.572;10.704;2023-12-20T08:04:47;92666.09;;;3.08;100.00
52735;BME280;38631;47.572;10.704;2023-12-20T08:07:12;92674.47;;;3.05;100.00
52735;BME280;38631;47.572;10.704;2023-12-20T08:09:37;92662.16;;;3.06;100.00
52735;BME280;38631;47.572;10.704;2023-12-20T08:12:03;92670.81;;;3.01;100.00
52735;BME280;38631;47.572;10.704;2023-12-20T08:14:28;92676.06;;;3.06;100.00
52735;BME280;38631;47.572;10.704;2023-12-20T08:16:54;92677.28;;;2.93;100.00
52735;BME280;38631;47.572;10.704;2023-12-20T08:19:19;92671.78;;;2.90;100.00
52735;BME280;38631;47.572;10.704;2023-12-20T08:21:44;92674.69;;;2.98;100.00
52735;BME280;38631;47.572;10.704;2023-12-20T08:24:10;92685.50;;;3.07;100.00
52735;BME280;38631;47.572;10.704;2023-12-20T08:26:35;92686.78;;;2.99;100.00
52735;BME280;38631;47.572;10.704;2023-12-20T08:29:00;92673.03;;;2.77;100.00
52735;BME280;38631;47.572;10.704;2023-12-20T08:31:26;92692.19;;;2.83;100.00
52735;BME280;38631;47.572;10.704;2023-12-20T08:33:52;92702.44;;;2.84;100.00
52735;BME280;38631;47.572;10.704;2023-12-20T08:36:19;92700.53;;;2.74;100.00
52735;BME280;38631;47.572;10.704;2023-12-20T08:38:46;92703.00;;;2.91;100.00
52735;BME280;38631;47.572;10.704;2023-12-20T08:41:11;92705.63;;;2.91;100.00
52735;BME280;38631;47.572;10.704;2023-12-20T08:43:37;92700.31;;;2.81;100.00
52735;BME280;38631;47.572;10.704;2023-12-20T08:46:05;92697.22;;;2.89;100.00
52735;BME280;38631;47.572;10.704;2023-12-20T08:48:32;92716.44;;;3.05;100.00
52735;BME280;38631;47.572;10.704;2023-12-20T08:50:57;92709.06;;;2.97;100.00
52735;BME280;38631;47.572;10.704;2023-12-20T08:53:23;92699.09;;;2.94;100.00
52735;BME280;38631;47.572;10.704;2023-12-20T08:55:48;92706.50;;;3.07;100.00
52735;BME280;38631;47.572;10.704;2023-12-20T08:58:14;92703.31;;;3.00;100.00
52735;BME280;38631;47.572;10.704;2023-12-20T09:00:39;92697.28;;;2.99;100.00
52735;BME280;38631;47.572;10.704;2023-12-20T09:03:05;92694.88;;;2.93;100.00
52735;BME280;38631;47.572;10.704;2023-12-20T09:05:30;92692.56;;;2.96;100.00
52735;BME280;38631;47.572;10.704;2023-12-20T09:07:56;92692.34;;;3.13;100.00
52735;BME280;38631;47.572;10.704;2023-12-20T09:10:22;92687.91;;;3.09;100.00
52735;BME280;38631;47.572;10.704;2023-12-20T09:12:51;92669.44;;;2.98;100.00
52735;BME280;38631;47.572;10.704;2023-12-20T09:15:19;92673.16;;;3.02;100.00
52735;BME280;38631;47.572;10.704;2023-12-20T09:17:45;92676.63;;;3.13;100.00
52735;BME280;38631;47.572;10.704;2023-12-20T09:20:10;92659.81;;;3.09;100.00
52735;BME280;38631;47.572;10.704;2023-12-20T09:22:36;92659.31;;;3.12;100.00
52735;BME280;38631;47.572;10.704;2023-12-20T09:25:06;92665.34;;;3.13;100.00
52735;BME280;38631;47.572;10.704;2023-12-20T09:27:31;92661.72;;;3.24;100.00
52735;BME280;38631;47.572;10.704;2023-12-20T09:29:57;92674.56;;;3.20;100.00
52735;BME280;38631;47.572;10.704;2023-12-20T09:32:22;92667.47;;;3.21;100.00
52735;BME280;38631;47.572;10.704;2023-12-20T09:34:48;92682.41;;;3.20;100.00
52735;BME280;38631;47.572;10.704;2023-12-20T09:37:13;92674.31;;;3.22;100.00
52735;BME280;38631;47.572;10.704;2023-12-20T09:39:39;92675.66;;;3.30;100.00
52735;BME280;38631;47.572;10.704;2023-12-20T09:42:05;92673.28;;;3.28;100.00
52735;BME280;38631;47.572;10.704;2023-12-20T09:44:31;92674.59;;;3.31;100.00
52735;BME280;38631;47.572;10.704;2023-12-20T09:46:58;92663.88;;;3.42;100.00
52735;BME280;38631;47.572;10.704;2023-12-20T09:49:25;92665.75;;;3.47;100.00
52735;BME280;38631;47.572;10.704;2023-12-20T09:51:54;92652.06;;;3.40;100.00
52735;BME280;38631;47.572;10.704;2023-12-20T09:54:20;92661.50;;;3.36;100.00
52735;BME280;38631;47.572;10.704;2023-12-20T09:56:46;92645.50;;;3.37;100.00
52735;BME280;38631;47.572;10.704;2023-12-20T09:59:21;92648.13;;;3.42;100.00
52735;BME280;38631;47.572;10.704;2023-12-20T10:01:46;92648.13;;;3.42;100.00
52735;BME280;38631;47.572;10.704;2023-12-20T10:04:12;92652.63;;;3.47;100.00
52735;BME280;38631;47.572;10.704;2023-12-20T10:06:42;92655.78;;;3.49;100.00
52735;BME280;38631;47.572;10.704;2023-12-20T10:09:09;92643.94;;;3.36;100.00
52735;BME280;38631;47.572;10.704;2023-12-20T10:11:35;92646.31;;;3.48;100.00
52735;BME280;38631;47.572;10.704;2023-12-20T10:14:03;92628.72;;;3.43;100.00
52735;BME280;38631;47.572;10.704;2023-12-20T10:16:29;92627.44;;;3.56;100.00
52735;BME280;38631;47.572;10.704;2023-12-20T10:18:55;92628.47;;;3.55;100.00
52735;BME280;38631;47.572;10.704;2023-12-20T10:21:22;92640.31;;;3.58;100.00
52735;BME280;38631;47.572;10.704;2023-12-20T10:23:48;92634.53;;;3.61;100.00
52735;BME280;38631;47.572;10.704;2023-12-20T10:26:23;92627.72;;;3.65;100.00
52735;BME280;38631;47.572;10.704;2023-12-20T10:28:56;92623.78;;;3.62;100.00
52735;BME280;38631;47.572;10.704;2023-12-20T10:31:34;92623.00;;;3.62;100.00
52735;BME280;38631;47.572;10.704;2023-12-20T10:34:02;92611.69;;;3.56;100.00
52735;BME280;38631;47.572;10.704;2023-12-20T10:36:30;92619.31;;;3.63;100.00
52735;BME280;38631;47.572;10.704;2023-12-20T10:38:57;92608.81;;;3.63;100.00
52735;BME280;38631;47.572;10.704;2023-12-20T10:41:32;92612.50;;;3.72;100.00
52735;BME280;38631;47.572;10.704;2023-12-20T10:44:02;92613.03;;;3.74;100.00
52735;BME280;38631;47.572;10.704;2023-12-20T10:46:28;92607.50;;;3.76;100.00
52735;BME280;38631;47.572;10.704;2023-12-20T10:48:56;92609.66;;;3.89;100.00
52735;BME280;38631;47.572;10.704;2023-12-20T10:51:23;92595.69;;;3.88;100.00
52735;BME280;38631;47.572;10.704;2023-12-20T10:53:52;92599.63;;;3.86;100.00
52735;BME280;38631;47.572;10.704;2023-12-20T10:56:18;92604.13;;;3.85;100.00
52735;BME280;38631;47.572;10.704;2023-12-20T10:58:48;92613.59;;;3.81;100.00
52735;BME280;38631;47.572;10.704;2023-12-20T11:01:15;92598.31;;;3.78;100.00
52735;BME280;38631;47.572;10.704;2023-12-20T11:03:52;92596.50;;;3.84;100.00
52735;BME280;38631;47.572;10.704;2023-12-20T11:06:45;92582.84;;;3.82;100.00
52735;BME280;38631;47.572;10.704;2023-12-20T11:09:34;92586.50;;;3.96;100.00
52735;BME280;38631;47.572;10.704;2023-12-20T11:12:20;92587.81;;;3.99;100.00
52735;BME280;38631;47.572;10.704;2023-12-20T11:14:53;92582.31;;;3.95;100.00
52735;BME280;38631;47.572;10.704;2023-12-20T11:17:21;92579.69;;;3.95;100.00
52735;BME280;38631;47.572;10.704;2023-12-20T11:22:19;92576.81;;;3.97;100.00
52735;BME280;38631;47.572;10.704;2023-12-20T11:24:47;92571.03;;;3.95;100.00
52735;BME280;38631;47.572;10.704;2023-12-20T11:27:13;92572.88;;;4.04;100.00
52735;BME280;38631;47.572;10.704;2023-12-20T11:29:38;92575.50;;;3.99;100.00
52735;BME280;38631;47.572;10.704;2023-12-20T11:34:51;92572.88;;;4.04;100.00
52735;BME280;38631;47.572;10.704;2023-12-20T11:37:19;92578.66;;;4.01;100.00
52735;BME280;38631;47.572;10.704;2023-12-20T11:39:54;92583.09;;;4.06;100.00
52735;BME280;38631;47.572;10.704;2023-12-20T11:42:20;92581.53;;;4.05;100.00
52735;BME280;38631;47.572;10.704;2023-12-20T11:44:45;92577.59;;;3.97;100.00
52735;BME280;38631;47.572;10.704;2023-12-20T11:47:12;92570.50;;;3.98;100.00
52735;BME280;38631;47.572;10.704;2023-12-20T11:49:39;92568.66;;;3.93;100.00
52735;BME280;38631;47.572;10.704;2023-12-20T11:52:04;92554.22;;;3.96;100.00
52735;BME280;38631;47.572;10.704;2023-12-20T11:54:30;92573.41;;;4.01;100.00
52735;BME280;38631;47.572;10.704;2023-12-20T11:56:55;92576.53;;;3.93;100.00
52735;BME280;38631;47.572;10.704;2023-12-20T11:59:21;92577.06;;;3.90;100.00
52735;BME280;38631;47.572;10.704;2023-12-20T12:01:50;92571.56;;;3.97;100.00
52735;BME280;38631;47.572;10.704;2023-12-20T12:04:16;92565.50;;;3.91;100.00
52735;BME280;38631;47.572;10.704;2023-12-20T12:06:44;92575.22;;;4.01;100.00
52735;BME280;38631;47.572;10.704;2023-12-20T12:09:10;92565.50;;;3.96;100.00
52735;BME280;38631;47.572;10.704;2023-12-20T12:11:36;92559.72;;;4.04;100.00
52735;BME280;38631;47.572;10.704;2023-12-20T12:14:01;92562.09;;;3.90;100.00
52735;BME280;38631;47.572;10.704;2023-12-20T12:16:28;92572.59;;;3.96;100.00
52735;BME280;38631;47.572;10.704;2023-12-20T12:19:00;92555.53;;;3.93;100.00
52735;BME280;38631;47.572;10.704;2023-12-20T12:21:28;92555.28;;;3.89;100.00
52735;BME280;38631;47.572;10.704;2023-12-20T12:23:54;92552.09;;;3.93;100.00
52735;BME280;38631;47.572;10.704;2023-12-20T12:26:19;92555.28;;;3.84;100.00
52735;BME280;38631;47.572;10.704;2023-12-20T12:28:45;92562.63;;;3.93;100.00
52735;BME280;38631;47.572;10.704;2023-12-20T12:31:14;92571.81;;;3.90;100.00
52735;BME280;38631;47.572;10.704;2023-12-20T12:33:40;92590.19;;;3.90;100.00
52735;BME280;38631;47.572;10.704;2023-12-20T12:36:07;92570.75;;;3.76;100.00
52735;BME280;38631;47.572;10.704;2023-12-20T12:38:33;92568.13;;;3.71;100.00
52735;BME280;38631;47.572;10.704;2023-12-20T12:41:00;92569.97;;;3.70;100.00
52735;BME280;38631;47.572;10.704;2023-12-20T12:43:25;92560.25;;;3.65;100.00
52735;BME280;38631;47.572;10.704;2023-12-20T12:45:51;92565.47;;;3.60;100.00
52735;BME280;38631;47.572;10.704;2023-12-20T12:48:16;92556.06;;;3.70;100.00
52735;BME280;38631;47.572;10.704;2023-12-20T12:50:41;92560.75;;;3.62;100.00
52735;BME280;38631;47.572;10.704;2023-12-20T12:53:07;92566.53;;;3.64;100.00
52735;BME280;38631;47.572;10.704;2023-12-20T12:55:33;92560.25;;;3.71;100.00